createdAt,value
2023-02-17T00:01:27.728Z,36.10
2023-02-17T00:03:56.471Z,33.23
2023-02-17T00:06:25.664Z,34.13
2023-02-17T00:08:55.727Z,32.77
2023-02-17T00:11:24.173Z,38.23
2023-02-17T00:13:55.184Z,36.33
2023-02-17T00:16:25.233Z,31.97
2023-02-17T00:18:54.753Z,33.87
2023-02-17T00:21:24.188Z,29.67
2023-02-17T00:23:53.019Z,34.00
2023-02-17T00:26:22.968Z,41.20
2023-02-17T00:28:51.545Z,33.40
2023-02-17T00:31:21.558Z,28.40
2023-02-17T00:33:50.246Z,32.77
2023-02-17T00:36:19.145Z,31.37
2023-02-17T00:38:49.055Z,28.83
2023-02-17T00:41:17.680Z,32.20
2023-02-17T00:43:47.430Z,33.73
2023-02-17T00:46:15.846Z,35.23
2023-02-17T00:48:44.622Z,34.90
2023-02-17T00:51:13.109Z,37.37
2023-02-17T00:53:41.605Z,37.27
2023-02-17T00:56:10.295Z,34.37
2023-02-17T00:58:38.730Z,32.07
2023-02-17T01:01:08.669Z,40.20
2023-02-17T01:03:37.319Z,40.70
2023-02-17T01:06:07.550Z,40.13
2023-02-17T01:08:36.105Z,43.23
2023-02-17T01:11:04.597Z,46.23
2023-02-17T01:13:33.156Z,42.90
2023-02-17T01:16:01.647Z,32.27
2023-02-17T01:18:31.531Z,43.43
2023-02-17T01:21:00.029Z,39.93
2023-02-17T01:23:28.389Z,38.73
2023-02-17T01:25:56.873Z,36.27
2023-02-17T01:28:25.365Z,40.27
2023-02-17T01:30:53.898Z,38.97
2023-02-17T01:33:22.461Z,40.53
2023-02-17T01:35:52.293Z,38.87
2023-02-17T01:38:20.715Z,38.77
2023-02-17T01:40:49.628Z,35.03
2023-02-17T01:43:18.356Z,34.43
2023-02-17T01:45:48.686Z,31.10
2023-02-17T01:48:20.248Z,34.47
2023-02-17T01:50:49.454Z,32.83
2023-02-17T01:53:20.661Z,35.63
2023-02-17T01:55:49.054Z,42.50
2023-02-17T01:58:17.999Z,36.37
2023-02-17T02:00:46.444Z,38.67
2023-02-17T02:03:15.148Z,38.90
2023-02-17T02:05:43.601Z,39.23
2023-02-17T02:08:12.248Z,45.30
2023-02-17T02:10:42.099Z,40.27
2023-02-17T02:13:10.808Z,45.93
2023-02-17T02:15:41.252Z,39.97
2023-02-17T02:18:15.962Z,44.13
2023-02-17T02:21:03.185Z,40.80
2023-02-17T02:23:51.327Z,42.30
2023-02-17T02:26:32.861Z,37.47
2023-02-17T02:29:13.882Z,38.43
2023-02-17T02:31:44.314Z,37.80
2023-02-17T02:34:14.750Z,36.00
2023-02-17T02:36:44.854Z,42.07
2023-02-17T02:39:13.653Z,41.27
2023-02-17T02:41:42.619Z,38.17
2023-02-17T02:44:11.465Z,39.23
2023-02-17T02:46:39.907Z,42.17
2023-02-17T02:49:08.302Z,33.53
2023-02-17T02:51:40.849Z,38.10
2023-02-17T02:54:27.010Z,38.23
2023-02-17T02:57:05.436Z,44.90
2023-02-17T02:59:36.337Z,39.30
2023-02-17T03:02:07.207Z,35.93
2023-02-17T03:04:37.289Z,42.00
2023-02-17T03:07:07.701Z,42.20
2023-02-17T03:09:36.111Z,39.13
2023-02-17T03:12:04.860Z,38.93
2023-02-17T03:14:33.221Z,44.37
2023-02-17T03:17:01.661Z,45.63
2023-02-17T03:19:30.100Z,43.37
2023-02-17T03:21:59.791Z,39.00
2023-02-17T03:24:29.604Z,43.67
2023-02-17T03:26:58.280Z,42.30
2023-02-17T03:29:26.719Z,40.33
2023-02-17T03:31:55.458Z,40.67
2023-02-17T03:34:24.038Z,39.43
2023-02-17T03:36:52.476Z,48.40
2023-02-17T03:39:20.902Z,43.40
2023-02-17T03:41:51.841Z,37.27
2023-02-17T03:44:20.317Z,47.53
2023-02-17T03:46:48.775Z,37.73
2023-02-17T03:49:17.294Z,41.23
2023-02-17T03:51:45.759Z,42.03
2023-02-17T03:54:14.343Z,40.67
2023-02-17T03:56:42.828Z,40.87
2023-02-17T03:59:12.775Z,37.10
2023-02-17T04:01:41.428Z,40.13
2023-02-17T04:04:09.993Z,38.87
2023-02-17T04:06:38.466Z,50.90
2023-02-17T04:09:07.020Z,41.53
2023-02-17T04:11:35.405Z,47.60
2023-02-17T04:14:03.944Z,46.93
2023-02-17T04:16:39.176Z,50.70
2023-02-17T04:19:07.645Z,48.50
2023-02-17T04:21:36.319Z,43.90
2023-02-17T04:24:04.931Z,41.13
2023-02-17T04:26:33.433Z,48.30
2023-02-17T04:29:01.978Z,45.93
2023-02-17T04:31:30.547Z,43.60
2023-02-17T04:34:00.400Z,48.50
2023-02-17T04:36:29.172Z,37.33
2023-02-17T04:38:57.748Z,42.83
2023-02-17T04:41:26.251Z,37.73
2023-02-17T04:43:54.722Z,43.33
2023-02-17T04:46:23.209Z,51.83
2023-02-17T04:48:51.656Z,55.20
2023-02-17T04:51:21.443Z,41.20
2023-02-17T04:53:49.878Z,53.90
2023-02-17T04:56:18.428Z,44.17
2023-02-17T04:58:46.909Z,48.10
2023-02-17T05:01:15.323Z,57.67
2023-02-17T05:03:43.953Z,57.00
2023-02-17T05:06:12.392Z,51.40
2023-02-17T05:08:42.303Z,58.00
2023-02-17T05:11:10.838Z,59.63
2023-02-17T05:13:39.418Z,53.80
2023-02-17T05:16:08.403Z,46.93
2023-02-17T05:18:37.023Z,49.63
2023-02-17T05:21:05.718Z,43.60
2023-02-17T05:23:34.112Z,48.93
2023-02-17T05:26:04.385Z,61.00
2023-02-17T05:28:32.907Z,46.77
2023-02-17T05:31:02.403Z,50.97
2023-02-17T05:33:30.859Z,45.83
2023-02-17T05:36:03.626Z,48.93
2023-02-17T05:38:32.043Z,46.13
2023-02-17T05:41:00.436Z,47.97
2023-02-17T05:43:30.207Z,45.23
2023-02-17T05:45:58.802Z,41.63
2023-02-17T05:48:27.297Z,40.90
2023-02-17T05:50:55.873Z,34.87
2023-02-17T05:53:24.326Z,39.27
2023-02-17T05:55:52.714Z,30.47
2023-02-17T05:58:21.259Z,31.87
2023-02-17T06:00:51.074Z,36.60
2023-02-17T06:03:19.615Z,36.10
2023-02-17T06:05:48.076Z,30.63
2023-02-17T06:08:16.608Z,29.33
2023-02-17T06:10:45.047Z,35.30
2023-02-17T06:13:13.598Z,37.30
2023-02-17T06:15:42.541Z,32.97
2023-02-17T06:18:12.289Z,29.80
2023-02-17T06:20:40.820Z,34.57
2023-02-17T06:23:12.630Z,35.97
2023-02-17T06:25:41.166Z,33.10
2023-02-17T06:28:09.587Z,35.20
2023-02-17T06:30:38.046Z,35.80
2023-02-17T06:33:06.641Z,32.87
2023-02-17T06:35:36.629Z,42.53
2023-02-17T06:38:05.058Z,36.67
2023-02-17T06:40:33.457Z,33.83
2023-02-17T06:43:01.824Z,32.60
2023-02-17T06:45:30.359Z,29.73
2023-02-17T06:47:58.848Z,37.50
2023-02-17T06:50:27.233Z,29.40
2023-02-17T06:52:57.152Z,36.43
2023-02-17T06:55:25.627Z,35.70
2023-02-17T06:57:54.081Z,33.30
2023-02-17T07:00:23.182Z,32.93
2023-02-17T07:02:54.657Z,33.83
2023-02-17T07:05:23.259Z,25.50
2023-02-17T07:07:53.252Z,33.33
2023-02-17T07:10:23.181Z,28.90
2023-02-17T07:12:51.585Z,28.20
2023-02-17T07:15:20.136Z,26.27
2023-02-17T07:17:48.624Z,27.03
2023-02-17T07:20:17.300Z,28.60
2023-02-17T07:22:45.690Z,25.13
2023-02-17T07:25:14.317Z,23.50
2023-02-17T07:27:44.016Z,29.00
2023-02-17T07:30:12.803Z,24.50
2023-02-17T07:32:41.246Z,24.53
2023-02-17T07:35:09.957Z,23.20
2023-02-17T07:37:38.437Z,26.13
2023-02-17T07:40:07.492Z,20.33
2023-02-17T07:42:35.930Z,20.73
2023-02-17T07:45:06.940Z,18.33
2023-02-17T07:47:35.335Z,21.73
2023-02-17T07:50:03.726Z,24.77
2023-02-17T07:52:32.119Z,22.00
2023-02-17T07:55:02.118Z,18.27
2023-02-17T07:57:30.435Z,25.83
2023-02-17T07:59:59.012Z,21.40
2023-02-17T08:02:28.809Z,20.90
2023-02-17T08:04:57.408Z,22.13
2023-02-17T08:07:25.776Z,23.57
2023-02-17T08:10:11.954Z,26.20
2023-02-17T08:13:09.535Z,24.47
2023-02-17T08:15:38.208Z,24.60
2023-02-17T08:18:08.125Z,30.13
2023-02-17T08:20:36.885Z,25.90
2023-02-17T08:23:05.259Z,23.27
2023-02-17T08:25:34.359Z,27.43
2023-02-17T08:28:02.992Z,21.47
2023-02-17T08:30:31.533Z,25.30
2023-02-17T08:33:00.229Z,28.10
2023-02-17T08:35:30.189Z,25.03
2023-02-17T08:37:58.720Z,28.03
2023-02-17T08:40:27.088Z,26.57
2023-02-17T08:42:55.506Z,29.83
2023-02-17T08:45:24.007Z,27.17
2023-02-17T08:47:52.432Z,25.80
2023-02-17T08:50:21.163Z,22.97
2023-02-17T08:52:50.899Z,22.57
2023-02-17T08:55:20.445Z,23.13
2023-02-17T08:57:49.325Z,22.40
2023-02-17T09:00:18.417Z,23.00
2023-02-17T09:02:47.251Z,24.20
2023-02-17T09:05:16.032Z,23.30
2023-02-17T09:07:44.433Z,23.63
2023-02-17T09:10:14.272Z,26.37
2023-02-17T09:12:42.800Z,27.40
2023-02-17T09:15:11.456Z,15.77
2023-02-17T09:17:42.996Z,21.60
2023-02-17T09:20:24.017Z,19.57
2023-02-17T09:22:53.084Z,21.43
2023-02-17T09:25:23.010Z,22.53
2023-02-17T09:27:51.530Z,19.27
2023-02-17T09:30:20.063Z,22.80
2023-02-17T09:32:48.843Z,25.23
2023-02-17T09:35:17.945Z,22.07
2023-02-17T09:37:46.478Z,19.40
2023-02-17T09:40:18.009Z,18.53
2023-02-17T09:42:47.975Z,20.30
2023-02-17T09:45:18.802Z,19.47
2023-02-17T09:47:48.542Z,17.97
2023-02-17T09:50:17.876Z,18.20
2023-02-17T09:52:49.186Z,20.10
2023-02-17T09:55:18.376Z,19.47
2023-02-17T09:57:49.592Z,23.10
2023-02-17T10:00:18.746Z,23.70
2023-02-17T10:02:48.429Z,24.70
2023-02-17T10:05:18.184Z,20.63
2023-02-17T10:07:47.828Z,19.67
2023-02-17T10:10:16.790Z,21.90
2023-02-17T10:12:46.065Z,19.80
2023-02-17T10:15:19.086Z,20.17
2023-02-17T10:17:48.584Z,18.87
2023-02-17T10:20:17.903Z,19.33
2023-02-17T10:22:47.325Z,23.73
2023-02-17T10:25:16.643Z,21.23
2023-02-17T10:27:45.396Z,16.30
2023-02-17T10:30:33.194Z,22.70
2023-02-17T10:33:02.528Z,22.47
2023-02-17T10:35:43.417Z,21.63
2023-02-17T10:38:15.384Z,21.50
2023-02-17T10:40:45.086Z,21.40
2023-02-17T10:43:21.219Z,21.13
2023-02-17T10:45:51.345Z,27.30
2023-02-17T10:48:20.849Z,23.53
2023-02-17T10:50:49.363Z,20.53
2023-02-17T10:53:19.201Z,25.60
2023-02-17T10:55:51.110Z,29.23
2023-02-17T10:58:21.121Z,22.10
2023-02-17T11:00:52.022Z,22.20
2023-02-17T11:03:20.967Z,28.10
2023-02-17T11:05:54.260Z,26.13
2023-02-17T11:08:26.225Z,25.60
2023-02-17T11:11:00.334Z,25.10
2023-02-17T11:13:33.334Z,33.50
2023-02-17T11:16:03.198Z,27.33
2023-02-17T11:18:33.641Z,24.60
2023-02-17T11:21:03.169Z,28.63
2023-02-17T11:23:31.932Z,23.80
2023-02-17T11:26:02.079Z,22.63
2023-02-17T11:28:30.550Z,33.30
2023-02-17T11:31:02.821Z,32.73
2023-02-17T11:33:42.206Z,35.60
2023-02-17T11:36:13.791Z,31.70
2023-02-17T11:38:46.119Z,31.97
2023-02-17T11:41:14.545Z,28.33
2023-02-17T11:43:52.504Z,28.33
2023-02-17T11:46:23.550Z,26.97
2023-02-17T11:49:07.236Z,28.53
2023-02-17T11:51:38.594Z,30.93
2023-02-17T11:54:08.845Z,37.20
2023-02-17T11:56:37.601Z,26.77
2023-02-17T11:59:21.046Z,31.37
2023-02-17T12:01:57.620Z,31.90
2023-02-17T12:04:28.293Z,35.97
2023-02-17T12:07:02.059Z,33.87
2023-02-17T12:09:31.884Z,31.13
2023-02-17T12:12:01.561Z,28.07
2023-02-17T12:14:48.397Z,32.83
2023-02-17T12:17:18.507Z,24.73
2023-02-17T12:19:51.113Z,26.83
2023-02-17T12:22:20.125Z,22.97
2023-02-17T12:24:52.850Z,29.93
2023-02-17T12:27:25.113Z,34.60
2023-02-17T12:30:04.161Z,37.77
2023-02-17T12:32:36.431Z,27.40
2023-02-17T12:35:12.501Z,24.57
2023-02-17T12:37:43.655Z,25.23
2023-02-17T12:40:16.416Z,27.83
2023-02-17T12:42:45.567Z,31.43
2023-02-17T12:45:18.174Z,27.33
2023-02-17T12:47:49.634Z,32.77
2023-02-17T12:50:21.571Z,24.10
2023-02-17T12:52:50.996Z,32.97
2023-02-17T12:55:21.232Z,31.40
2023-02-17T12:57:53.389Z,28.70
2023-02-17T13:00:22.862Z,28.73
2023-02-17T13:02:51.504Z,28.97
2023-02-17T13:05:24.056Z,25.33
2023-02-17T13:07:53.132Z,28.60
2023-02-17T13:10:30.268Z,25.03
2023-02-17T13:12:59.803Z,34.60
2023-02-17T13:15:33.307Z,28.73
2023-02-17T13:18:03.240Z,25.70
2023-02-17T13:20:52.469Z,21.70
2023-02-17T13:23:36.187Z,24.10
2023-02-17T13:26:31.578Z,27.63
2023-02-17T13:29:10.708Z,25.27
2023-02-17T13:31:49.216Z,26.03
2023-02-17T13:34:27.617Z,27.20
2023-02-17T13:36:56.047Z,34.33
2023-02-17T13:39:35.860Z,24.83
2023-02-17T13:42:04.225Z,29.30
2023-02-17T13:44:33.153Z,22.60
2023-02-17T13:47:02.231Z,25.43
2023-02-17T13:49:33.069Z,29.73
2023-02-17T13:52:17.623Z,27.10
2023-02-17T13:54:54.619Z,25.70
2023-02-17T13:57:26.650Z,27.10
2023-02-17T13:59:54.989Z,22.03
2023-02-17T14:02:35.365Z,25.33
2023-02-17T14:05:06.948Z,22.47
2023-02-17T14:07:36.133Z,24.53
2023-02-17T14:10:06.236Z,26.83
2023-02-17T14:12:34.781Z,28.43
2023-02-17T14:15:03.341Z,24.63
2023-02-17T14:17:33.034Z,32.43
2023-02-17T14:20:01.988Z,29.67
2023-02-17T14:22:31.143Z,27.27
2023-02-17T14:25:00.299Z,25.67
2023-02-17T14:27:30.262Z,36.00
2023-02-17T14:29:59.245Z,22.87
2023-02-17T14:32:31.485Z,27.03
2023-02-17T14:35:21.442Z,20.07
2023-02-17T14:37:50.469Z,30.77
2023-02-17T14:40:19.706Z,24.17
2023-02-17T14:42:49.551Z,28.90
2023-02-17T14:45:18.191Z,30.60
2023-02-17T14:47:46.722Z,32.07
2023-02-17T14:50:16.525Z,25.37
2023-02-17T14:52:46.540Z,26.17
2023-02-17T14:55:16.804Z,31.17
2023-02-17T14:57:45.319Z,27.07
2023-02-17T15:00:16.163Z,30.07
2023-02-17T15:02:44.735Z,26.30
2023-02-17T15:05:13.264Z,28.20
2023-02-17T15:07:43.355Z,31.10
2023-02-17T15:10:16.707Z,24.30
2023-02-17T15:12:45.185Z,26.97
2023-02-17T15:15:17.284Z,30.40
2023-02-17T15:17:45.897Z,30.83
2023-02-17T15:20:14.680Z,30.00
2023-02-17T15:22:44.370Z,29.53
2023-02-17T15:25:16.102Z,32.13
2023-02-17T15:27:44.584Z,25.37
2023-02-17T15:30:13.406Z,30.53
2023-02-17T15:32:43.698Z,28.87
2023-02-17T15:35:15.480Z,27.40
2023-02-17T15:37:44.009Z,31.83
2023-02-17T15:40:15.340Z,30.50
2023-02-17T15:42:44.207Z,33.87
2023-02-17T15:45:15.739Z,27.67
2023-02-17T15:47:45.563Z,36.27
2023-02-17T15:50:20.443Z,29.87
2023-02-17T15:52:49.805Z,33.17
2023-02-17T15:55:18.990Z,30.00
2023-02-17T15:57:48.134Z,37.80
2023-02-17T16:00:20.632Z,20.43
2023-02-17T16:02:50.614Z,26.60
2023-02-17T16:05:19.680Z,35.77
2023-02-17T16:07:48.255Z,25.60
2023-02-17T16:10:17.103Z,35.20
2023-02-17T16:12:48.456Z,27.60
2023-02-17T16:15:17.464Z,32.03
2023-02-17T16:17:46.087Z,32.27
2023-02-17T16:20:19.986Z,26.57
2023-02-17T16:22:48.484Z,26.43
2023-02-17T16:25:17.552Z,24.93
2023-02-17T16:27:46.236Z,27.40
2023-02-17T16:30:21.078Z,32.60
2023-02-17T16:32:49.874Z,32.43
2023-02-17T16:35:19.919Z,31.80
2023-02-17T16:37:51.158Z,37.33
2023-02-17T16:40:19.804Z,25.50
2023-02-17T16:42:48.205Z,29.33
2023-02-17T16:45:17.582Z,29.53
2023-02-17T16:47:46.563Z,28.73
2023-02-17T16:50:20.452Z,28.87
2023-02-17T16:52:48.939Z,27.53
2023-02-17T16:55:18.327Z,25.20
2023-02-17T16:57:46.911Z,28.23
2023-02-17T17:00:16.699Z,29.10
2023-02-17T17:02:45.620Z,28.07
2023-02-17T17:05:14.285Z,27.67
2023-02-17T17:07:44.259Z,31.33
2023-02-17T17:10:17.016Z,26.30
2023-02-17T17:12:45.947Z,32.43
2023-02-17T17:15:14.728Z,27.00
2023-02-17T17:17:43.396Z,26.37
2023-02-17T17:20:14.780Z,26.10
2023-02-17T17:22:44.723Z,28.30
2023-02-17T17:25:13.145Z,25.97
2023-02-17T17:27:41.849Z,28.77
2023-02-17T17:30:10.975Z,24.27
2023-02-17T17:32:39.629Z,30.13
2023-02-17T17:35:08.502Z,25.70
2023-02-17T17:37:39.145Z,28.50
2023-02-17T17:40:10.004Z,30.20
2023-02-17T17:42:38.407Z,40.67
2023-02-17T17:45:07.288Z,28.40
2023-02-17T17:47:39.129Z,21.23
2023-02-17T17:50:10.699Z,24.97
2023-02-17T17:52:40.018Z,25.03
2023-02-17T17:55:10.032Z,27.10
2023-02-17T17:57:38.459Z,29.07
2023-02-17T18:00:07.778Z,25.50
2023-02-17T18:02:36.307Z,23.90
2023-02-17T18:05:04.730Z,30.20
2023-02-17T18:07:34.899Z,26.80
2023-02-17T18:10:04.965Z,21.50
2023-02-17T18:12:35.072Z,24.63
2023-02-17T18:15:06.937Z,28.63
2023-02-17T18:17:35.680Z,21.67
2023-02-17T18:20:04.050Z,21.83
2023-02-17T18:22:32.502Z,21.50
2023-02-17T18:25:00.975Z,27.27
2023-02-17T18:27:29.490Z,23.20
2023-02-17T18:29:59.333Z,27.10
2023-02-17T18:32:27.864Z,23.63
2023-02-17T18:34:58.468Z,24.63
2023-02-17T18:37:27.176Z,30.90
2023-02-17T18:39:55.726Z,25.03
2023-02-17T18:42:24.137Z,24.70
2023-02-17T18:44:53.624Z,29.43
2023-02-17T18:47:23.476Z,27.53
2023-02-17T18:49:52.017Z,26.67
2023-02-17T18:52:20.456Z,26.83
2023-02-17T18:54:48.898Z,27.50
2023-02-17T18:57:17.365Z,30.27
2023-02-17T18:59:45.836Z,28.37
2023-02-17T19:02:14.207Z,42.57
2023-02-17T19:04:44.042Z,32.80
2023-02-17T19:07:12.547Z,26.53
2023-02-17T19:09:42.227Z,32.03
2023-02-17T19:12:13.521Z,40.47
2023-02-17T19:14:42.310Z,36.77
2023-02-17T19:17:10.906Z,41.13
2023-02-17T19:19:39.450Z,38.87
2023-02-17T19:22:12.153Z,33.93
2023-02-17T19:24:41.640Z,30.30
2023-02-17T19:27:10.012Z,41.63
2023-02-17T19:29:38.648Z,31.43
2023-02-17T19:32:07.542Z,37.57
2023-02-17T19:34:37.384Z,29.20
2023-02-17T19:37:05.808Z,34.77
2023-02-17T19:39:36.060Z,35.50
2023-02-17T19:42:04.600Z,36.30
2023-02-17T19:44:33.063Z,30.00
2023-02-17T19:47:02.379Z,40.70
2023-02-17T19:49:30.722Z,33.77
2023-02-17T19:51:59.125Z,30.40
2023-02-17T19:54:27.492Z,32.80
2023-02-17T19:56:57.299Z,28.33
2023-02-17T19:59:25.804Z,38.63
2023-02-17T20:01:54.226Z,34.83
2023-02-17T20:04:22.731Z,36.10
2023-02-17T20:06:54.310Z,27.73
2023-02-17T20:09:23.197Z,33.60
2023-02-17T20:11:53.156Z,37.23
2023-02-17T20:14:23.424Z,32.80
2023-02-17T20:16:53.315Z,32.43
2023-02-17T20:19:21.937Z,32.10
2023-02-17T20:21:50.313Z,34.33
2023-02-17T20:24:19.234Z,36.03
2023-02-17T20:26:47.964Z,41.43
2023-02-17T20:29:16.599Z,33.97
2023-02-17T20:31:46.533Z,33.40
2023-02-17T20:34:22.709Z,38.67
2023-02-17T20:36:51.112Z,38.60
2023-02-17T20:39:20.438Z,40.33
2023-02-17T20:41:48.913Z,33.80
2023-02-17T20:44:18.168Z,31.43
2023-02-17T20:46:49.083Z,38.37
2023-02-17T20:49:17.588Z,45.83
2023-02-17T20:51:46.477Z,39.03
2023-02-17T20:54:14.838Z,32.40
2023-02-17T20:56:43.703Z,41.67
2023-02-17T20:59:13.318Z,36.13
2023-02-17T21:01:41.940Z,37.23
2023-02-17T21:04:14.141Z,41.10
2023-02-17T21:06:43.249Z,33.87
2023-02-17T21:09:14.711Z,40.80
2023-02-17T21:11:43.131Z,34.37
2023-02-17T21:14:11.569Z,35.67
2023-02-17T21:16:40.049Z,42.13
2023-02-17T21:19:08.548Z,35.50
2023-02-17T21:21:38.790Z,45.20
2023-02-17T21:24:07.492Z,34.97
2023-02-17T21:26:36.136Z,32.37
2023-02-17T21:29:04.601Z,37.97
2023-02-17T21:31:33.125Z,37.00
2023-02-17T21:34:01.668Z,33.77
2023-02-17T21:36:30.417Z,40.97
2023-02-17T21:39:00.320Z,29.20
2023-02-17T21:41:30.364Z,35.27
2023-02-17T21:44:16.549Z,39.47
2023-02-17T21:46:45.382Z,35.37
2023-02-17T21:49:13.909Z,30.97
2023-02-17T21:51:42.333Z,34.80
2023-02-17T21:54:12.317Z,33.27
2023-02-17T21:56:40.725Z,33.90
2023-02-17T21:59:09.430Z,39.53
2023-02-17T22:01:37.977Z,34.20
2023-02-17T22:04:06.981Z,33.33
2023-02-17T22:06:36.194Z,35.60
2023-02-17T22:09:05.243Z,37.70
2023-02-17T22:11:36.902Z,40.73
2023-02-17T22:14:06.602Z,35.83
2023-02-17T22:16:35.655Z,33.30
2023-02-17T22:19:04.212Z,35.73
2023-02-17T22:21:32.611Z,38.47
2023-02-17T22:24:01.216Z,35.13
2023-02-17T22:26:29.772Z,41.23
2023-02-17T22:28:59.578Z,41.33
2023-02-17T22:31:29.270Z,41.77
2023-02-17T22:33:58.105Z,33.47
2023-02-17T22:36:27.608Z,39.57
2023-02-17T22:38:56.345Z,33.77
2023-02-17T22:41:25.550Z,37.20
2023-02-17T22:43:54.060Z,37.43
2023-02-17T22:46:24.312Z,38.57
2023-02-17T22:48:53.735Z,41.67
2023-02-17T22:51:22.496Z,47.93
2023-02-17T22:53:51.576Z,35.17
2023-02-17T22:56:20.737Z,39.10
2023-02-17T22:58:53.793Z,41.63
2023-02-17T23:01:22.837Z,38.40
2023-02-17T23:03:54.544Z,36.37
2023-02-17T23:06:24.486Z,33.70
2023-02-17T23:08:52.932Z,41.77
2023-02-17T23:11:42.496Z,34.93
2023-02-17T23:14:10.978Z,35.37
2023-02-17T23:16:39.845Z,45.90
2023-02-17T23:19:10.215Z,34.13
2023-02-17T23:21:38.984Z,33.63
2023-02-17T23:24:07.977Z,40.83
2023-02-17T23:26:36.493Z,35.30
2023-02-17T23:29:05.084Z,41.93
2023-02-17T23:31:33.667Z,37.47
2023-02-17T23:34:03.388Z,39.00
2023-02-17T23:36:33.934Z,41.77
2023-02-17T23:39:03.503Z,40.13
2023-02-17T23:41:32.788Z,39.40
2023-02-17T23:44:02.200Z,37.37
2023-02-17T23:46:30.732Z,48.63
2023-02-17T23:49:01.504Z,40.10
2023-02-17T23:51:30.802Z,44.60
2023-02-17T23:54:04.907Z,43.20
2023-02-17T23:56:33.852Z,45.30
2023-02-17T23:59:02.555Z,40.67
